createdAt,value
2022-09-13T00:01:04.379Z,3.50
2022-09-13T00:03:06.157Z,3.30
2022-09-13T00:05:08.259Z,3.05
2022-09-13T00:07:10.006Z,3.33
2022-09-13T00:09:11.714Z,3.15
2022-09-13T00:11:33.783Z,2.70
2022-09-13T00:13:35.530Z,3.15
2022-09-13T00:15:37.619Z,3.38
2022-09-13T00:17:39.382Z,2.92
2022-09-13T00:19:41.091Z,2.95
2022-09-13T00:21:42.923Z,3.28
2022-09-13T00:23:47.162Z,2.77
2022-09-13T00:25:48.860Z,3.22
2022-09-13T00:27:50.817Z,3.28
2022-09-13T00:29:52.629Z,2.77
2022-09-13T00:31:54.503Z,3.15
2022-09-13T00:33:59.297Z,2.80
2022-09-13T00:36:11.615Z,2.60
2022-09-13T00:38:13.334Z,3.35
2022-09-13T00:40:15.508Z,2.97
2022-09-13T00:42:17.658Z,3.15
2022-09-13T00:44:57.625Z,2.97
2022-09-13T00:46:59.387Z,3.13
2022-09-13T00:49:12.405Z,2.90
2022-09-13T00:53:20.509Z,2.83
2022-09-13T00:55:34.849Z,2.83
2022-09-13T00:57:37.400Z,2.85
2022-09-13T00:59:51.709Z,2.88
2022-09-13T01:01:56.294Z,2.38
2022-09-13T01:03:58.093Z,2.78
2022-09-13T01:06:11.447Z,2.60
2022-09-13T01:08:22.297Z,2.63
2022-09-13T01:10:24.099Z,2.70
2022-09-13T01:12:49.536Z,2.67
2022-09-13T01:14:52.439Z,2.25
2022-09-13T01:16:54.389Z,2.55
2022-09-13T01:18:56.129Z,2.90
2022-09-13T01:21:12.859Z,2.65
2022-09-13T01:23:42.765Z,2.20
2022-09-13T01:25:59.697Z,2.45
2022-09-13T01:28:45.092Z,2.60
2022-09-13T01:30:55.490Z,2.35
2022-09-13T01:33:09.370Z,2.50
2022-09-13T01:35:35.656Z,2.80
2022-09-13T01:37:54.133Z,2.50
2022-09-13T01:40:16.625Z,2.53
2022-09-13T01:42:36.933Z,2.45
2022-09-13T01:45:12.659Z,2.47
2022-09-13T01:47:28.677Z,2.80
2022-09-13T01:49:39.305Z,2.85
2022-09-13T01:52:05.709Z,2.40
2022-09-13T01:54:26.954Z,2.22
2022-09-13T01:56:43.716Z,2.30
2022-09-13T01:58:48.809Z,2.20
2022-09-13T02:01:11.480Z,2.50
2022-09-13T02:03:24.348Z,2.60
2022-09-13T02:05:35.531Z,2.60
2022-09-13T02:07:42.148Z,2.30
2022-09-13T02:09:50.074Z,2.33
2022-09-13T02:11:58.745Z,2.10
2022-09-13T02:14:18.048Z,2.22
2022-09-13T02:16:38.350Z,2.47
2022-09-13T02:18:42.600Z,2.20
2022-09-13T02:20:47.802Z,2.45
2022-09-13T02:22:56.820Z,2.72
2022-09-13T02:25:05.008Z,2.50
2022-09-13T02:27:15.992Z,2.70
2022-09-13T02:29:21.109Z,2.50
2022-09-13T02:31:33.811Z,2.45
2022-09-13T02:33:47.421Z,2.28
2022-09-13T02:35:52.229Z,2.15
2022-09-13T02:38:01.847Z,2.35
2022-09-13T02:40:08.973Z,2.45
2022-09-13T02:42:36.442Z,2.40
2022-09-13T02:44:42.772Z,2.33
2022-09-13T02:47:10.466Z,2.50
2022-09-13T02:49:18.633Z,1.98
2022-09-13T02:51:29.396Z,2.70
2022-09-13T02:53:58.476Z,2.50
2022-09-13T02:56:00.214Z,2.00
2022-09-13T02:58:28.753Z,2.05
2022-09-13T03:00:31.650Z,2.30
2022-09-13T03:02:34.987Z,2.47
2022-09-13T03:04:36.989Z,2.45
2022-09-13T03:06:40.562Z,2.10
2022-09-13T03:08:42.326Z,1.90
2022-09-13T03:10:56.787Z,2.50
2022-09-13T03:13:35.907Z,2.53
2022-09-13T03:16:19.477Z,2.25
2022-09-13T03:18:33.147Z,2.35
2022-09-13T03:21:13.689Z,2.20
2022-09-13T03:23:26.637Z,2.45
2022-09-13T03:25:59.171Z,2.45
2022-09-13T03:28:28.429Z,2.10
2022-09-13T03:30:33.380Z,2.00
2022-09-13T03:32:56.949Z,2.17
2022-09-13T03:35:14.334Z,2.63
2022-09-13T03:37:28.545Z,2.38
2022-09-13T03:39:47.582Z,2.38
2022-09-13T03:41:55.942Z,2.55
2022-09-13T03:44:03.929Z,2.80
2022-09-13T03:46:38.928Z,2.10
2022-09-13T03:48:43.027Z,3.08
2022-09-13T03:50:47.332Z,2.25
2022-09-13T03:52:55.471Z,2.50
2022-09-13T03:54:58.113Z,2.10
2022-09-13T03:57:11.408Z,1.90
2022-09-13T03:59:13.175Z,2.30
2022-09-13T04:01:19.730Z,2.35
2022-09-13T04:03:21.468Z,2.10
2022-09-13T04:05:23.168Z,2.30
2022-09-13T04:07:25.381Z,2.40
2022-09-13T04:09:27.224Z,2.40
2022-09-13T04:11:32.066Z,2.03
2022-09-13T04:13:33.784Z,2.20
2022-09-13T04:15:35.502Z,2.33
2022-09-13T04:17:37.265Z,2.00
2022-09-13T04:19:39.616Z,2.03
2022-09-13T04:21:41.413Z,2.28
2022-09-13T04:23:43.129Z,2.35
2022-09-13T04:25:45.588Z,1.85
2022-09-13T04:27:47.350Z,2.20
2022-09-13T04:29:49.113Z,2.58
2022-09-13T04:31:53.099Z,1.88
2022-09-13T04:33:55.035Z,2.30
2022-09-13T04:36:00.520Z,2.27
2022-09-13T04:38:02.699Z,2.17
2022-09-13T04:40:06.381Z,1.80
2022-09-13T04:42:10.311Z,1.92
2022-09-13T04:44:12.362Z,2.28
2022-09-13T04:46:14.200Z,2.33
2022-09-13T04:48:16.545Z,2.47
2022-09-13T04:50:18.299Z,2.15
2022-09-13T04:52:20.057Z,2.03
2022-09-13T04:54:22.299Z,2.20
2022-09-13T04:56:26.485Z,2.60
2022-09-13T04:58:28.268Z,2.10
2022-09-13T05:00:31.580Z,2.22
2022-09-13T05:02:33.515Z,2.17
2022-09-13T05:04:35.342Z,2.20
2022-09-13T05:06:37.208Z,2.20
2022-09-13T05:08:39.695Z,2.10
2022-09-13T05:10:41.438Z,2.30
2022-09-13T05:12:43.164Z,2.08
2022-09-13T05:14:44.888Z,2.20
2022-09-13T05:16:46.689Z,1.65
2022-09-13T05:18:48.836Z,2.13
2022-09-13T05:20:53.679Z,1.90
2022-09-13T05:22:56.067Z,2.05
2022-09-13T05:24:57.850Z,2.17
2022-09-13T05:26:59.555Z,2.22
2022-09-13T05:29:01.679Z,2.10
2022-09-13T05:31:17.761Z,2.13
2022-09-13T05:33:19.529Z,2.08
2022-09-13T05:35:21.395Z,2.15
2022-09-13T05:37:23.137Z,1.93
2022-09-13T05:39:48.491Z,2.03
2022-09-13T05:41:46.948Z,2.00
2022-09-13T05:43:48.728Z,1.80
2022-09-13T05:45:50.640Z,1.92
2022-09-13T05:47:52.401Z,1.93
2022-09-13T05:50:11.035Z,2.17
2022-09-13T05:52:15.415Z,1.80
2022-09-13T05:54:17.399Z,1.83
2022-09-13T05:56:22.930Z,2.08
2022-09-13T05:58:24.678Z,2.10
2022-09-13T06:00:26.456Z,1.55
2022-09-13T06:02:28.205Z,1.90
2022-09-13T06:04:29.995Z,2.05
2022-09-13T06:06:31.773Z,1.85
2022-09-13T06:08:35.043Z,1.90
2022-09-13T06:10:36.795Z,1.58
2022-09-13T06:12:38.565Z,2.20
2022-09-13T06:14:40.330Z,2.20
2022-09-13T06:16:42.061Z,1.65
2022-09-13T06:18:44.718Z,2.50
2022-09-13T06:20:46.765Z,2.08
2022-09-13T06:22:49.291Z,2.42
2022-09-13T06:24:51.006Z,2.28
2022-09-13T06:26:53.945Z,2.00
2022-09-13T06:28:58.038Z,1.95
2022-09-13T06:31:01.930Z,2.20
2022-09-13T06:33:04.592Z,2.42
2022-09-13T06:35:06.929Z,1.75
2022-09-13T06:37:08.648Z,1.90
2022-09-13T06:39:10.500Z,1.65
2022-09-13T06:41:20.576Z,1.93
2022-09-13T06:43:22.339Z,1.52
2022-09-13T06:45:24.070Z,1.45
2022-09-13T06:47:26.117Z,1.42
2022-09-13T06:49:29.195Z,1.88
2022-09-13T06:51:32.673Z,2.20
2022-09-13T06:53:36.263Z,2.90
2022-09-13T06:55:37.973Z,2.45
2022-09-13T06:57:39.758Z,2.15
2022-09-13T06:59:41.487Z,1.98
2022-09-13T07:01:43.880Z,1.88
2022-09-13T07:03:50.855Z,1.70
2022-09-13T07:05:52.557Z,1.80
2022-09-13T07:07:54.262Z,1.55
2022-09-13T07:09:56.027Z,1.63
2022-09-13T07:11:57.875Z,1.50
2022-09-13T07:14:00.968Z,1.30
2022-09-13T07:16:06.399Z,1.55
2022-09-13T07:18:08.190Z,1.67
2022-09-13T07:20:10.045Z,1.77
2022-09-13T07:22:11.751Z,1.60
2022-09-13T07:24:13.622Z,1.60
2022-09-13T07:26:15.783Z,1.60
2022-09-13T07:28:18.823Z,1.42
2022-09-13T07:30:23.173Z,1.10
2022-09-13T07:32:26.043Z,1.20
2022-09-13T07:34:27.879Z,1.55
2022-09-13T07:36:31.210Z,1.85
2022-09-13T07:38:37.294Z,1.63
2022-09-13T07:40:39.189Z,1.20
2022-09-13T07:42:40.955Z,1.37
2022-09-13T07:44:42.647Z,1.05
2022-09-13T07:46:44.578Z,1.42
2022-09-13T07:48:47.285Z,1.30
2022-09-13T07:53:20.026Z,1.10
2022-09-13T07:55:21.869Z,1.08
2022-09-13T07:57:23.632Z,1.10
2022-09-13T07:59:29.549Z,1.17
2022-09-13T08:01:36.678Z,1.40
2022-09-13T08:03:38.928Z,1.00
2022-09-13T08:05:42.050Z,1.00
2022-09-13T08:07:43.769Z,1.30
2022-09-13T08:09:45.495Z,1.10
2022-09-13T08:11:51.775Z,1.20
2022-09-13T08:13:53.835Z,0.88
2022-09-13T08:15:56.468Z,1.10
2022-09-13T08:17:58.214Z,1.67
2022-09-13T08:20:00.322Z,1.20
2022-09-13T08:22:02.140Z,1.25
2022-09-13T08:24:05.996Z,1.60
2022-09-13T08:26:10.622Z,1.20
2022-09-13T08:28:18.205Z,1.13
2022-09-13T08:30:19.963Z,1.13
2022-09-13T08:32:21.802Z,1.23
2022-09-13T08:34:23.539Z,0.90
2022-09-13T08:36:26.751Z,0.90
2022-09-13T08:38:29.447Z,1.10
2022-09-13T08:40:38.658Z,1.25
2022-09-13T08:42:53.949Z,1.17
2022-09-13T08:44:58.877Z,1.25
2022-09-13T08:47:19.467Z,1.17
2022-09-13T08:49:26.483Z,1.13
2022-09-13T08:51:47.900Z,0.82
2022-09-13T08:53:51.517Z,0.82
2022-09-13T08:56:12.853Z,1.00
2022-09-13T08:58:30.391Z,0.80
2022-09-13T09:00:39.676Z,0.70
2022-09-13T09:03:12.224Z,0.90
2022-09-13T09:05:16.781Z,0.90
2022-09-13T09:07:22.752Z,0.90
2022-09-13T09:09:26.423Z,1.00
2022-09-13T09:11:41.498Z,0.82
2022-09-13T09:13:58.911Z,0.90
2022-09-13T09:16:07.251Z,0.90
2022-09-13T09:18:23.484Z,0.88
2022-09-13T09:20:34.932Z,1.00
2022-09-13T09:22:36.695Z,1.00
2022-09-13T09:24:40.293Z,1.00
2022-09-13T09:26:41.995Z,0.90
2022-09-13T09:28:53.332Z,0.93
2022-09-13T09:31:09.117Z,1.20
2022-09-13T09:33:50.123Z,1.00
2022-09-13T09:36:14.689Z,0.75
2022-09-13T09:38:32.163Z,1.13
2022-09-13T09:40:36.425Z,1.00
2022-09-13T09:42:47.167Z,1.10
2022-09-13T09:45:00.725Z,1.13
2022-09-13T09:47:23.947Z,1.10
2022-09-13T09:50:02.462Z,1.10
2022-09-13T09:52:08.776Z,1.02
2022-09-13T09:54:11.941Z,1.00
2022-09-13T09:56:23.250Z,0.90
2022-09-13T09:58:39.446Z,1.20
2022-09-13T10:00:51.532Z,1.05
2022-09-13T10:02:57.562Z,1.02
2022-09-13T10:05:03.098Z,1.08
2022-09-13T10:07:24.121Z,0.90
2022-09-13T10:09:27.228Z,1.27
2022-09-13T10:11:44.916Z,1.15
2022-09-13T10:14:03.676Z,1.20
2022-09-13T10:16:21.550Z,0.93
2022-09-13T10:18:43.419Z,1.05
2022-09-13T10:21:07.172Z,1.10
2022-09-13T10:23:14.797Z,0.80
2022-09-13T10:25:22.925Z,0.70
2022-09-13T10:27:35.886Z,0.80
2022-09-13T10:31:42.749Z,1.30
2022-09-13T10:33:50.349Z,0.80
2022-09-13T10:35:55.929Z,1.17
2022-09-13T10:37:57.809Z,0.88
2022-09-13T10:40:02.261Z,0.70
2022-09-13T10:42:09.573Z,0.70
2022-09-13T10:44:33.995Z,0.80
2022-09-13T10:46:39.006Z,0.73
2022-09-13T10:48:55.937Z,0.80
2022-09-13T10:51:17.848Z,0.90
2022-09-13T10:53:42.554Z,0.80
2022-09-13T10:55:53.837Z,0.75
2022-09-13T10:58:16.640Z,0.85
2022-09-13T11:00:21.548Z,0.77
2022-09-13T11:02:37.974Z,0.70
2022-09-13T11:05:09.489Z,0.98
2022-09-13T11:07:50.057Z,0.90
2022-09-13T11:10:25.677Z,0.80
2022-09-13T11:12:53.529Z,0.70
2022-09-13T11:15:20.327Z,0.75
2022-09-13T11:17:27.090Z,0.90
2022-09-13T11:19:31.661Z,0.80
2022-09-13T11:22:49.750Z,0.70
2022-09-13T11:25:22.103Z,0.75
2022-09-13T11:27:52.487Z,0.90
2022-09-13T11:30:08.457Z,0.80
2022-09-13T11:32:27.702Z,0.85
2022-09-13T11:34:45.125Z,0.70
2022-09-13T11:36:58.794Z,0.80
2022-09-13T11:39:31.241Z,0.80
2022-09-13T11:42:02.851Z,0.80
2022-09-13T11:44:23.478Z,0.60
2022-09-13T11:46:46.621Z,0.50
2022-09-13T11:48:57.189Z,0.73
2022-09-13T11:51:37.469Z,0.63
2022-09-13T11:54:26.588Z,0.73
2022-09-13T11:56:36.601Z,0.60
2022-09-13T11:58:47.538Z,0.70
2022-09-13T12:00:57.361Z,0.50
2022-09-13T12:03:11.312Z,0.45
2022-09-13T12:05:23.897Z,0.50
2022-09-13T12:09:38.375Z,0.50
2022-09-13T12:11:45.410Z,0.50
2022-09-13T12:13:59.688Z,0.60
2022-09-13T12:16:08.708Z,0.50
2022-09-13T12:18:16.228Z,0.80
2022-09-13T12:20:29.445Z,0.60
2022-09-13T12:22:36.202Z,0.60
2022-09-13T12:24:59.959Z,0.63
2022-09-13T12:27:11.148Z,0.60
2022-09-13T12:29:18.169Z,0.65
2022-09-13T12:31:25.815Z,0.50
2022-09-13T12:33:28.060Z,0.50
2022-09-13T12:35:40.340Z,0.52
2022-09-13T12:37:54.337Z,0.70
2022-09-13T12:40:31.637Z,0.60
2022-09-13T12:42:58.352Z,0.40
2022-09-13T12:45:41.036Z,0.60
2022-09-13T12:47:48.456Z,0.47
2022-09-13T12:50:01.780Z,0.60
2022-09-13T12:52:33.897Z,0.63
2022-09-13T12:55:02.942Z,0.60
2022-09-13T12:57:30.174Z,0.80
2022-09-13T13:00:04.209Z,0.50
2022-09-13T13:02:30.873Z,0.40
2022-09-13T13:04:37.405Z,0.40
2022-09-13T13:06:55.958Z,0.60
2022-09-13T13:09:02.077Z,0.82
2022-09-13T13:11:14.700Z,0.60
2022-09-13T13:13:34.131Z,0.50
2022-09-13T13:15:35.878Z,0.80
2022-09-13T13:17:37.754Z,0.50
2022-09-13T13:19:39.998Z,0.68
2022-09-13T13:21:41.769Z,0.60
2022-09-13T13:23:43.491Z,0.70
2022-09-13T13:26:08.022Z,0.60
2022-09-13T13:28:44.169Z,0.65
2022-09-13T13:30:54.120Z,0.60
2022-09-13T13:33:19.190Z,0.60
2022-09-13T13:35:32.392Z,0.95
2022-09-13T13:37:36.624Z,0.60
2022-09-13T13:39:44.009Z,0.65
2022-09-13T13:42:13.113Z,1.58
2022-09-13T13:44:20.884Z,0.60
2022-09-13T13:46:22.613Z,0.70
2022-09-13T13:48:39.982Z,0.70
2022-09-13T13:51:15.718Z,0.50
2022-09-13T13:53:23.118Z,0.50
2022-09-13T13:55:41.922Z,0.60
2022-09-13T13:57:59.629Z,0.50
2022-09-13T14:00:21.378Z,0.50
2022-09-13T14:02:32.056Z,1.25
2022-09-13T14:04:52.381Z,1.52
2022-09-13T14:07:20.165Z,2.65
2022-09-13T14:09:44.282Z,2.63
2022-09-13T14:12:01.229Z,1.80
2022-09-13T14:14:02.905Z,0.60
2022-09-13T14:16:36.958Z,0.60
2022-09-13T14:19:06.937Z,0.80
2022-09-13T14:21:29.649Z,0.50
2022-09-13T14:23:32.310Z,0.40
2022-09-13T14:25:34.109Z,0.50
2022-09-13T14:27:37.663Z,0.60
2022-09-13T14:29:39.703Z,0.60
2022-09-13T14:31:46.784Z,0.60
2022-09-13T14:33:48.769Z,0.47
2022-09-13T14:35:58.748Z,0.50
2022-09-13T14:38:19.894Z,0.70
2022-09-13T14:40:26.878Z,0.43
2022-09-13T14:42:40.570Z,0.57
2022-09-13T14:44:46.557Z,0.50
2022-09-13T14:46:55.462Z,0.60
2022-09-13T14:49:09.558Z,0.52
2022-09-13T14:51:23.329Z,0.52
2022-09-13T14:53:35.127Z,0.85
2022-09-13T14:55:44.010Z,0.40
2022-09-13T14:58:03.353Z,0.60
2022-09-13T15:00:15.761Z,0.70
2022-09-13T15:02:32.421Z,0.65
2022-09-13T15:04:34.338Z,0.70
2022-09-13T15:06:39.907Z,0.68
2022-09-13T15:09:00.369Z,0.57
2022-09-13T15:11:07.248Z,0.65
2022-09-13T15:13:10.831Z,0.40
2022-09-13T15:15:31.421Z,0.50
2022-09-13T15:18:01.922Z,0.65
2022-09-13T15:20:06.043Z,0.50
2022-09-13T15:22:13.207Z,0.60
2022-09-13T15:24:33.262Z,0.60
2022-09-13T15:26:35.070Z,0.60
2022-09-13T15:28:48.868Z,0.70
2022-09-13T15:30:51.697Z,0.52
2022-09-13T15:33:11.548Z,0.50
2022-09-13T15:35:28.534Z,0.60
2022-09-13T15:37:36.932Z,0.60
2022-09-13T15:39:51.195Z,0.57
2022-09-13T15:41:55.469Z,0.60
2022-09-13T15:43:58.673Z,0.70
2022-09-13T15:46:01.820Z,0.80
2022-09-13T15:48:04.561Z,0.68
2022-09-13T15:50:06.916Z,0.85
2022-09-13T15:52:10.319Z,0.80
2022-09-13T15:54:17.563Z,0.98
2022-09-13T15:56:22.243Z,0.70
2022-09-13T15:58:23.932Z,0.82
2022-09-13T16:00:28.202Z,0.60
2022-09-13T16:02:33.247Z,0.63
2022-09-13T16:04:35.055Z,0.90
2022-09-13T16:06:36.904Z,0.63
2022-09-13T16:08:39.276Z,1.30
2022-09-13T16:10:41.062Z,1.02
2022-09-13T16:12:42.911Z,1.00
2022-09-13T16:14:45.478Z,1.03
2022-09-13T16:18:49.308Z,1.10
2022-09-13T16:20:51.294Z,1.30
2022-09-13T16:22:53.535Z,1.13
2022-09-13T16:24:55.274Z,2.22
2022-09-13T16:27:01.082Z,1.03
2022-09-13T16:29:02.827Z,0.85
2022-09-13T16:31:04.659Z,1.27
2022-09-13T16:33:06.496Z,1.25
2022-09-13T16:35:09.968Z,1.00
2022-09-13T16:37:16.663Z,1.20
2022-09-13T16:39:19.007Z,0.95
2022-09-13T16:41:21.007Z,1.05
2022-09-13T16:43:22.859Z,1.10
2022-09-13T16:45:24.639Z,1.00
2022-09-13T16:47:26.412Z,0.90
2022-09-13T16:49:28.294Z,1.00
2022-09-13T16:51:30.315Z,1.10
2022-09-13T16:53:33.992Z,0.93
2022-09-13T16:55:36.669Z,0.93
2022-09-13T16:59:43.670Z,1.20
2022-09-13T17:01:45.656Z,1.20
2022-09-13T17:03:49.943Z,0.80
2022-09-13T17:06:02.266Z,1.20
2022-09-13T17:08:04.793Z,1.23
2022-09-13T17:10:08.776Z,1.88
2022-09-13T17:12:13.560Z,1.95
2022-09-13T17:14:17.605Z,1.75
2022-09-13T17:16:56.718Z,1.10
2022-09-13T17:19:00.503Z,1.20
2022-09-13T17:21:02.810Z,1.50
2022-09-13T17:23:04.565Z,1.30
2022-09-13T17:25:09.936Z,1.30
2022-09-13T17:27:11.714Z,1.30
2022-09-13T17:29:14.577Z,1.60
2022-09-13T17:31:17.246Z,1.20
2022-09-13T17:35:22.886Z,1.40
2022-09-13T17:37:25.179Z,1.52
2022-09-13T17:39:26.874Z,1.33
2022-09-13T17:41:28.620Z,1.77
2022-09-13T17:43:30.743Z,1.30
2022-09-13T17:45:32.536Z,1.80
2022-09-13T17:47:34.392Z,1.40
2022-09-13T17:49:36.181Z,2.47
2022-09-13T17:51:37.950Z,2.63
2022-09-13T17:53:46.037Z,2.73
2022-09-13T17:55:49.668Z,2.90
2022-09-13T17:57:51.822Z,3.25
2022-09-13T17:59:54.840Z,2.60
2022-09-13T18:01:59.261Z,2.90
2022-09-13T18:04:01.361Z,2.78
2022-09-13T18:06:04.594Z,2.40
2022-09-13T18:08:06.335Z,2.65
2022-09-13T18:10:20.448Z,2.83
2022-09-13T18:12:30.081Z,2.83
2022-09-13T18:14:32.872Z,3.25
2022-09-13T18:18:40.600Z,2.75
2022-09-13T18:20:46.984Z,2.85
2022-09-13T18:22:48.737Z,2.80
2022-09-13T18:24:50.518Z,3.08
2022-09-13T18:26:52.342Z,3.00
2022-09-13T18:28:56.106Z,3.40
2022-09-13T18:31:00.383Z,3.53
2022-09-13T18:33:02.173Z,3.88
2022-09-13T18:35:04.453Z,3.97
2022-09-13T18:37:06.215Z,3.88
2022-09-13T18:39:12.334Z,4.28
2022-09-13T18:41:19.944Z,3.50
2022-09-13T18:43:21.715Z,3.28
2022-09-13T18:45:23.470Z,3.25
2022-09-13T18:47:25.210Z,2.90
2022-09-13T18:49:26.951Z,3.00
2022-09-13T18:51:40.716Z,2.80
2022-09-13T18:53:43.530Z,3.30
